TimePDT,TemperatureF,Dew PointF,Humidity,Sea Level PressureIn,VisibilityMPH,Wind Direction,Wind SpeedMPH,Gust SpeedMPH,PrecipitationIn,Events,Conditions,WindDirDegrees,DateUTC
12:56 AM,64.0,48.9,58,29.84,10.0,SSE,4.6,-,N/A,,Clear,160,2013-07-22 07:56:00
1:56 AM,62.1,48.9,62,29.86,10.0,SSE,4.6,-,N/A,,Clear,160,2013-07-22 08:56:00
2:56 AM,61.0,48.0,62,29.87,10.0,South,8.1,-,N/A,,Clear,190,2013-07-22 09:56:00
3:56 AM,59.0,48.9,69,29.88,10.0,South,5.8,-,N/A,,Clear,190,2013-07-22 10:56:00
4:56 AM,57.9,48.9,72,29.88,10.0,Calm,Calm,-,N/A,,Clear,0,2013-07-22 11:56:00
5:56 AM,57.0,48.9,74,29.90,10.0,Calm,Calm,-,N/A,,Clear,0,2013-07-22 12:56:00
6:56 AM,57.0,48.9,74,29.91,10.0,South,3.5,-,N/A,,Clear,170,2013-07-22 13:56:00
7:56 AM,60.1,48.9,67,29.93,10.0,SSE,3.5,-,N/A,,Clear,160,2013-07-22 14:56:00
8:56 AM,64.9,52.0,63,29.93,10.0,SE,4.6,-,N/A,,Clear,130,2013-07-22 15:56:00
9:56 AM,71.1,52.0,51,29.93,10.0,ESE,4.6,-,N/A,,Clear,110,2013-07-22 16:56:00
10:56 AM,78.1,51.1,39,29.92,10.0,SE,9.2,-,N/A,,Clear,130,2013-07-22 17:56:00
11:56 AM,82.9,50.0,32,29.89,10.0,SE,6.9,-,N/A,,Clear,140,2013-07-22 18:56:00
12:56 PM,88.0,46.0,23,29.88,10.0,SE,10.4,-,N/A,,Clear,140,2013-07-22 19:56:00
1:56 PM,91.9,46.9,21,29.86,10.0,ESE,10.4,-,N/A,,Clear,110,2013-07-22 20:56:00
2:56 PM,95.0,46.0,19,29.84,10.0,ESE,10.4,-,N/A,,Clear,120,2013-07-22 21:56:00
3:56 PM,97.0,46.0,18,29.83,10.0,SE,11.5,-,N/A,,Clear,130,2013-07-22 22:56:00
4:56 PM,96.1,48.0,19,29.82,10.0,SE,13.8,19.6,N/A,,Clear,140,2013-07-22 23:56:00
5:56 PM,91.0,53.1,27,29.83,10.0,SSE,10.4,20.7,N/A,,Clear,150,2013-07-23 00:56:00
6:56 PM,82.9,51.1,33,29.85,10.0,SSE,12.7,20.7,N/A,,Clear,150,2013-07-23 01:56:00
7:56 PM,79.0,50.0,36,29.88,10.0,South,12.7,23.0,N/A,,Clear,170,2013-07-23 02:56:00
8:56 PM,73.0,50.0,44,29.91,10.0,South,12.7,21.9,N/A,,Clear,170,2013-07-23 03:56:00
9:56 PM,71.1,48.0,44,29.94,10.0,SSE,11.5,-,N/A,,Clear,160,2013-07-23 04:56:00
10:56 PM,72.0,46.0,40,29.95,10.0,SSE,3.5,-,N/A,,Clear,160,2013-07-23 05:56:00
11:56 PM,68.0,46.9,47,29.95,10.0,Calm,Calm,-,N/A,,Clear,0,2013-07-23 06:56:00